Observation data for Reese Center on 09/11/2017      Previous  Date  Next       Current Mesonet Observations  Soil Data  Daily Summary Page  Observations in Plain Language
KREE 110500Z 12008KT 19/09 A3024 RMK A01 T01920087  RH  051%=      5-min Rain = 0
KREE 110505Z 13009KT 19/09 A3024 RMK A01 T01910087  RH  052%=      5-min Rain = 0
KREE 110510Z 13009KT 19/09 A3024 RMK A01 T01910087  RH  052%=      5-min Rain = 0
KREE 110515Z 13008KT 19/09 A3024 RMK A01 T01910087  RH  052%=      5-min Rain = 0
KREE 110520Z 13008KT 19/09 A3024 RMK A01 T01890087  RH  052%=      5-min Rain = 0
KREE 110525Z 13008KT 19/09 A3024 RMK A01 T01870088  RH  053%=      5-min Rain = 0
KREE 110530Z 13008KT 19/09 A3024 RMK A01 T01850088  RH  054%=      5-min Rain = 0
KREE 110535Z 13008KT 19/09 A3024 RMK A01 T01850087  RH  054%=      5-min Rain = 0
KREE 110540Z 12008KT 19/09 A3024 RMK A01 T01860087  RH  053%=      5-min Rain = 0
KREE 110545Z 13009KT 19/09 A3024 RMK A01 T01870086  RH  052%=      5-min Rain = 0
KREE 110550Z 13009KT 19/09 A3024 RMK A01 T01880086  RH  052%=      5-min Rain = 0
KREE 110555Z 13009KT 19/09 A3024 RMK A01 T01880085  RH  052%=      5-min Rain = 0
KREE 110600Z 13010KT 19/09 A3024 RMK A01 T01880085  RH  052%=      5-min Rain = 0
KREE 110605Z 13010KT 19/09 A3024 RMK A01 T01880085  RH  052%=      5-min Rain = 0
KREE 110610Z 13010KT 19/09 A3024 RMK A01 T01870085  RH  052%=      5-min Rain = 0
KREE 110615Z 13010KT 19/09 A3024 RMK A01 T01860085  RH  053%=      5-min Rain = 0
KREE 110620Z 13010KT 18/09 A3024 RMK A01 T01840085  RH  053%=      5-min Rain = 0
KREE 110625Z 13010KT 18/08 A3024 RMK A01 T01840084  RH  053%=      5-min Rain = 0
KREE 110630Z 13009KT 18/08 A3023 RMK A01 T01840083  RH  053%=      5-min Rain = 0
KREE 110635Z 13009KT 18/08 A3023 RMK A01 T01830083  RH  053%=      5-min Rain = 0
KREE 110640Z 13009KT 18/08 A3023 RMK A01 T01810083  RH  053%=      5-min Rain = 0
KREE 110645Z 13009KT 18/08 A3023 RMK A01 T01800083  RH  054%=      5-min Rain = 0
KREE 110650Z 13008KT 18/08 A3023 RMK A01 T01790083  RH  054%=      5-min Rain = 0
KREE 110655Z 13008KT 18/08 A3023 RMK A01 T01770083  RH  055%=      5-min Rain = 0
KREE 110700Z 13008KT 18/08 A3023 RMK A01 T01760083  RH  055%=      5-min Rain = 0
KREE 110705Z 13008KT 18/08 A3023 RMK A01 T01750083  RH  056%=      5-min Rain = 0
KREE 110710Z 13008KT 17/08 A3023 RMK A01 T01740082  RH  056%=      5-min Rain = 0
KREE 110715Z 13007KT 17/08 A3023 RMK A01 T01730082  RH  056%=      5-min Rain = 0
KREE 110720Z 13007KT 17/08 A3023 RMK A01 T01720082  RH  056%=      5-min Rain = 0
KREE 110725Z 13007KT 17/08 A3023 RMK A01 T01710082  RH  057%=      5-min Rain = 0
KREE 110730Z 13007KT 17/08 A3023 RMK A01 T01690082  RH  057%=      5-min Rain = 0
KREE 110735Z 13007KT 17/08 A3023 RMK A01 T01690082  RH  057%=      5-min Rain = 0
KREE 110740Z 14007KT 17/08 A3023 RMK A01 T01680082  RH  057%=      5-min Rain = 0
KREE 110745Z 14006KT 17/08 A3023 RMK A01 T01670082  RH  058%=      5-min Rain = 0
KREE 110750Z 14006KT 17/08 A3023 RMK A01 T01650083  RH  059%=      5-min Rain = 0
KREE 110755Z 15005KT 16/08 A3023 RMK A01 T01630083  RH  060%=      5-min Rain = 0
KREE 110800Z 15005KT 16/08 A3023 RMK A01 T01590083  RH  061%=      5-min Rain = 0
KREE 110805Z 15005KT 16/08 A3023 RMK A01 T01570083  RH  062%=      5-min Rain = 0
KREE 110810Z 15005KT 16/08 A3023 RMK A01 T01560083  RH  063%=      5-min Rain = 0
KREE 110815Z 15006KT 15/08 A3023 RMK A01 T01540083  RH  063%=      5-min Rain = 0
KREE 110820Z 15006KT 15/08 A3023 RMK A01 T01540083  RH  063%=      5-min Rain = 0
KREE 110825Z 15006KT 15/08 A3023 RMK A01 T01540083  RH  063%=      5-min Rain = 0
KREE 110830Z 14005KT 15/08 A3023 RMK A01 T01530083  RH  064%=      5-min Rain = 0
KREE 110835Z 14005KT 15/08 A3023 RMK A01 T01510083  RH  065%=      5-min Rain = 0
KREE 110840Z 14004KT 15/08 A3023 RMK A01 T01500083  RH  065%=      5-min Rain = 0
KREE 110845Z 14004KT 15/08 A3023 RMK A01 T01500083  RH  065%=      5-min Rain = 0
KREE 110850Z 15004KT 15/08 A3023 RMK A01 T01500082  RH  065%=      5-min Rain = 0
KREE 110855Z 15005KT 15/08 A3022 RMK A01 T01510082  RH  064%=      5-min Rain = 0
KREE 110900Z 15005KT 15/08 A3022 RMK A01 T01510082  RH  065%=      5-min Rain = 0
KREE 110905Z 16005KT 15/08 A3022 RMK A01 T01470082  RH  066%=      5-min Rain = 0
KREE 110910Z 16006KT 15/08 A3022 RMK A01 T01450083  RH  067%=      5-min Rain = 0
KREE 110915Z 15006KT 15/08 A3022 RMK A01 T01450083  RH  068%=      5-min Rain = 0
KREE 110920Z 15005KT 14/08 A3022 RMK A01 T01440083  RH  068%=      5-min Rain = 0
KREE 110925Z 16005KT 14/08 A3022 RMK A01 T01420084  RH  069%=      5-min Rain = 0
KREE 110930Z 16005KT 14/08 A3022 RMK A01 T01400083  RH  070%=      5-min Rain = 0
KREE 110935Z 16005KT 14/08 A3022 RMK A01 T01390084  RH  070%=      5-min Rain = 0
KREE 110940Z 16004KT 14/08 A3022 RMK A01 T01410083  RH  069%=      5-min Rain = 0
KREE 110945Z 16004KT 14/08 A3022 RMK A01 T01430083  RH  068%=      5-min Rain = 0
KREE 110950Z 16004KT 14/08 A3022 RMK A01 T01440083  RH  068%=      5-min Rain = 0
KREE 110955Z 15004KT 14/08 A3023 RMK A01 T01420082  RH  068%=      5-min Rain = 0
KREE 111000Z 14004KT 14/08 A3023 RMK A01 T01380082  RH  070%=      5-min Rain = 0
KREE 111005Z 16004KT 14/08 A3023 RMK A01 T01360082  RH  071%=      5-min Rain = 0
KREE 111010Z 17003KT 14/08 A3023 RMK A01 T01360083  RH  071%=      5-min Rain = 0
KREE 111015Z 17003KT 14/08 A3023 RMK A01 T01390083  RH  070%=      5-min Rain = 0
KREE 111020Z 17003KT 14/08 A3023 RMK A01 T01390082  RH  070%=      5-min Rain = 0
KREE 111025Z 17002KT 13/08 A3023 RMK A01 T01340081  RH  071%=      5-min Rain = 0
KREE 111030Z 16002KT 13/08 A3023 RMK A01 T01320081  RH  073%=      5-min Rain = 0
KREE 111035Z 19002KT 13/08 A3023 RMK A01 T01310081  RH  073%=      5-min Rain = 0
KREE 111040Z 18001KT 13/08 A3023 RMK A01 T01300082  RH  074%=      5-min Rain = 0
KREE 111045Z 20001KT 13/08 A3023 RMK A01 T01280082  RH  074%=      5-min Rain = 0
KREE 111050Z 22001KT 13/08 A3023 RMK A01 T01260081  RH  075%=      5-min Rain = 0
KREE 111055Z 22002KT 12/08 A3023 RMK A01 T01240081  RH  076%=      5-min Rain = 0
KREE 111100Z 21002KT 12/08 A3023 RMK A01 T01230082  RH  077%=      5-min Rain = 0
KREE 111105Z 23002KT 12/08 A3023 RMK A01 T01230082  RH  077%=      5-min Rain = 0
KREE 111110Z 21002KT 12/08 A3023 RMK A01 T01230082  RH  078%=      5-min Rain = 0
KREE 111115Z 22002KT 12/08 A3023 RMK A01 T01230083  RH  077%=      5-min Rain = 0
KREE 111120Z 21002KT 12/08 A3023 RMK A01 T01220082  RH  078%=      5-min Rain = 0
KREE 111125Z 21002KT 12/08 A3023 RMK A01 T01220083  RH  078%=      5-min Rain = 0
KREE 111130Z 21002KT 12/08 A3023 RMK A01 T01220083  RH  078%=      5-min Rain = 0
KREE 111135Z 21002KT 12/08 A3023 RMK A01 T01220084  RH  078%=      5-min Rain = 0
KREE 111140Z 21002KT 12/08 A3024 RMK A01 T01230084  RH  078%=      5-min Rain = 0
KREE 111145Z 21002KT 12/08 A3024 RMK A01 T01230084  RH  078%=      5-min Rain = 0
KREE 111150Z 21002KT 12/08 A3024 RMK A01 T01230084  RH  078%=      5-min Rain = 0
KREE 111155Z 22002KT 12/08 A3024 RMK A01 T01220083  RH  078%=      5-min Rain = 0
KREE 111200Z 24002KT 12/08 A3024 RMK A01 T01200082  RH  079%=      5-min Rain = 0
KREE 111205Z 25003KT 12/08 A3024 RMK A01 T01160082  RH  081%=      5-min Rain = 0
KREE 111210Z 26003KT 11/08 A3024 RMK A01 T01130082  RH  082%=      5-min Rain = 0
KREE 111215Z 27003KT 11/08 A3024 RMK A01 T01110082  RH  084%=      5-min Rain = 0
KREE 111220Z 29004KT 11/08 A3024 RMK A01 T01090082  RH  085%=      5-min Rain = 0
KREE 111225Z 29004KT 11/08 A3024 RMK A01 T01070082  RH  085%=      5-min Rain = 0
KREE 111230Z 29004KT 11/08 A3024 RMK A01 T01070081  RH  085%=      5-min Rain = 0
KREE 111235Z 29005KT 11/08 A3024 RMK A01 T01070081  RH  085%=      5-min Rain = 0
KREE 111240Z 29005KT 11/08 A3024 RMK A01 T01070081  RH  085%=      5-min Rain = 0
KREE 111245Z 29005KT 11/08 A3024 RMK A01 T01070080  RH  085%=      5-min Rain = 0
KREE 111250Z 30005KT 11/08 A3024 RMK A01 T01080080  RH  084%=      5-min Rain = 0
KREE 111255Z 31003KT 11/08 A3024 RMK A01 T01090081  RH  084%=      5-min Rain = 0
KREE 111300Z 31003KT 11/08 A3024 RMK A01 T01110081  RH  083%=      5-min Rain = 0
KREE 111305Z 31004KT 11/08 A3024 RMK A01 T01130083  RH  083%=      5-min Rain = 0
KREE 111310Z 31003KT 12/08 A3024 RMK A01 T01150084  RH  082%=      5-min Rain = 0
KREE 111315Z 31004KT 12/09 A3024 RMK A01 T01170085  RH  082%=      5-min Rain = 0
KREE 111320Z 31004KT 12/09 A3025 RMK A01 T01200087  RH  082%=      5-min Rain = 0
KREE 111325Z 31004KT 12/09 A3025 RMK A01 T01230089  RH  081%=      5-min Rain = 0
KREE 111330Z 31004KT 13/09 A3025 RMK A01 T01270091  RH  080%=      5-min Rain = 0
KREE 111335Z 31003KT 13/09 A3025 RMK A01 T01310094  RH  079%=      5-min Rain = 0
KREE 111340Z 31003KT 14/10 A3024 RMK A01 T01360096  RH  078%=      5-min Rain = 0
KREE 111345Z 31003KT 14/10 A3025 RMK A01 T01390097  RH  077%=      5-min Rain = 0
KREE 111350Z 31003KT 14/10 A3025 RMK A01 T01440098  RH  075%=      5-min Rain = 0
KREE 111355Z 31002KT 15/10 A3025 RMK A01 T01490099  RH  073%=      5-min Rain = 0
KREE 111400Z 30002KT 15/10 A3025 RMK A01 T01520098  RH  071%=      5-min Rain = 0
KREE 111405Z 31001KT 16/10 A3025 RMK A01 T01560099  RH  070%=      5-min Rain = 0
KREE 111410Z 28001KT 16/10 A3025 RMK A01 T01620099  RH  067%=      5-min Rain = 0
KREE 111415Z 25002KT 17/10 A3025 RMK A01 T01660098  RH  065%=      5-min Rain = 0
KREE 111420Z 23003KT 17/10 A3025 RMK A01 T01700098  RH  063%=      5-min Rain = 0
KREE 111425Z 23004KT 17/10 A3025 RMK A01 T01720100  RH  064%=      5-min Rain = 0
KREE 111430Z 23004KT 17/10 A3025 RMK A01 T01740101  RH  063%=      5-min Rain = 0
KREE 111435Z 23005KT 18/10 A3025 RMK A01 T01790102  RH  062%=      5-min Rain = 0
KREE 111440Z 23004KT 18/10 A3025 RMK A01 T01830103  RH  061%=      5-min Rain = 0
KREE 111445Z 23006KT 19/10 A3025 RMK A01 T01870101  RH  058%=      5-min Rain = 0
KREE 111450Z 23007KT 19/10 A3025 RMK A01 T01910100  RH  056%=      5-min Rain = 0
KREE 111455Z 23008KT 19/10 A3025 RMK A01 T01940099  RH  055%=      5-min Rain = 0
KREE 111500Z 22009KT 20/10 A3025 RMK A01 T01950099  RH  055%=      5-min Rain = 0
KREE 111505Z 22009KT 20/10 A3025 RMK A01 T01970100  RH  054%=      5-min Rain = 0
KREE 111510Z 22007KT 20/10 A3025 RMK A01 T02000102  RH  054%=      5-min Rain = 0
KREE 111515Z 24006KT 20/10 A3025 RMK A01 T02030102  RH  053%=      5-min Rain = 0
KREE 111520Z 25007KT 21/10 A3025 RMK A01 T02050101  RH  052%=      5-min Rain = 0
KREE 111525Z 25007KT 21/10 A3025 RMK A01 T02070101  RH  052%=      5-min Rain = 0
KREE 111530Z 24006KT 21/10 A3025 RMK A01 T02090102  RH  051%=      5-min Rain = 0
KREE 111535Z 24008KT 21/10 A3025 RMK A01 T02130100  RH  049%=      5-min Rain = 0
KREE 111540Z 24009KT 21/10 A3025 RMK A01 T02130099  RH  049%=      5-min Rain = 0
KREE 111545Z 23008KT 22/10 A3025 RMK A01 T02160100  RH  049%=      5-min Rain = 0
KREE 111550Z 23007KT 22/10 A3025 RMK A01 T02180103  RH  049%=      5-min Rain = 0
KREE 111555Z 25007KT 22/10 A3026 RMK A01 T02210102  RH  047%=      5-min Rain = 0
KREE 111600Z 26008KT 22/10 A3026 RMK A01 T02240103  RH  047%=      5-min Rain = 0
KREE 111605Z 24006KT 23/10 A3026 RMK A01 T02250102  RH  046%=      5-min Rain = 0
KREE 111610Z 21006KT 23/10 A3025 RMK A01 T02260103  RH  046%=      5-min Rain = 0
KREE 111615Z 26005KT 23/10 A3025 RMK A01 T02300103  RH  045%=      5-min Rain = 0
KREE 111620Z 25005KT 23/11 A3025 RMK A01 T02310105  RH  045%=      5-min Rain = 0
KREE 111625Z 25005KT 24/10 A3025 RMK A01 T02360103  RH  044%=      5-min Rain = 0
KREE 111630Z 25007KT 24/10 A3025 RMK A01 T02360102  RH  043%=      5-min Rain = 0
KREE 111635Z 26006KT 24/10 A3025 RMK A01 T02360100  RH  043%=      5-min Rain = 0
KREE 111640Z 23005KT 24/10 A3025 RMK A01 T02390101  RH  042%=      5-min Rain = 0
KREE 111645Z 23005KT 24/10 A3025 RMK A01 T02400100  RH  042%=      5-min Rain = 0
KREE 111650Z 25004KT 24/10 A3025 RMK A01 T02410102  RH  042%=      5-min Rain = 0
KREE 111655Z 24003KT 24/10 A3025 RMK A01 T02440099  RH  040%=      5-min Rain = 0
KREE 111700Z 23004KT 25/10 A3024 RMK A01 T02470103  RH  041%=      5-min Rain = 0
KREE 111705Z 26004KT 25/10 A3024 RMK A01 T02490101  RH  040%=      5-min Rain = 0
KREE 111710Z 21002KT 25/10 A3024 RMK A01 T02530098  RH  038%=      5-min Rain = 0
KREE 111715Z 26005KT 26/10 A3024 RMK A01 T02560100  RH  038%=      5-min Rain = 0
KREE 111720Z 21002KT 26/10 A3024 RMK A01 T02580104  RH  039%=      5-min Rain = 0
KREE 111725Z 21002KT 26/10 A3024 RMK A01 T02640098  RH  036%=      5-min Rain = 0
KREE 111730Z 21002KT 26/10 A3024 RMK A01 T02620097  RH  036%=      5-min Rain = 0
KREE 111735Z 31005KT 26/10 A3024 RMK A01 T02610095  RH  036%=      5-min Rain = 0
KREE 111740Z 34003KT 26/09 A3024 RMK A01 T02580092  RH  035%=      5-min Rain = 0
KREE 111745Z 30006G13KT 26/10 A3023 RMK A01 T02620095  RH  036%=      5-min Rain = 0
KREE 111750Z 30004G9KT 26/09 A3023 RMK A01 T02620091  RH  035%=      5-min Rain = 0
KREE 111755Z 25002KT 26/09 A3023 RMK A01 T02630090  RH  034%=      5-min Rain = 0
KREE 111800Z 01001KT 27/09 A3023 RMK A01 T02660093  RH  034%=      5-min Rain = 0
KREE 111805Z 28005KT 27/09 A3023 RMK A01 T02680093  RH  034%=      5-min Rain = 0
KREE 111810Z 28003KT 27/09 A3023 RMK A01 T02660091  RH  034%=      5-min Rain = 0
KREE 111815Z 30004KT 27/09 A3022 RMK A01 T02680087  RH  032%=      5-min Rain = 0
KREE 111820Z 31003KT 27/09 A3022 RMK A01 T02670087  RH  032%=      5-min Rain = 0
KREE 111825Z 17002KT 27/08 A3022 RMK A01 T02710084  RH  031%=      5-min Rain = 0
KREE 111830Z 30004KT 28/09 A3022 RMK A01 T02770088  RH  031%=      5-min Rain = 0
KREE 111835Z 20003KT 27/09 A3021 RMK A01 T02740086  RH  031%=      5-min Rain = 0
KREE 111840Z 27004KT 28/09 A3021 RMK A01 T02750087  RH  031%=      5-min Rain = 0
KREE 111845Z 24003KT 27/09 A3021 RMK A01 T02740086  RH  031%=      5-min Rain = 0
KREE 111850Z 28002KT 28/09 A3021 RMK A01 T02750088  RH  031%=      5-min Rain = 0
KREE 111855Z 33006KT 28/09 A3021 RMK A01 T02770087  RH  031%=      5-min Rain = 0
KREE 111900Z 32005KT 27/08 A3021 RMK A01 T02740083  RH  031%=      5-min Rain = 0
KREE 111905Z 30003KT 28/08 A302 RMK A01 T02760083  RH  030%=      5-min Rain = 0
KREE 111910Z 03003KT 28/08 A302 RMK A01 T02800084  RH  030%=      5-min Rain = 0
KREE 111915Z 33005KT 28/09 A302 RMK A01 T02800086  RH  030%=      5-min Rain = 0
KREE 111920Z 01006KT 28/08 A302 RMK A01 T02800084  RH  030%=      5-min Rain = 0
KREE 111925Z 07002KT 28/08 A302 RMK A01 T02800081  RH  029%=      5-min Rain = 0
KREE 111930Z 34002G7KT 28/08 A3019 RMK A01 T02830083  RH  029%=      5-min Rain = 0
KREE 111935Z 01005KT 28/08 A3019 RMK A01 T02840084  RH  029%=      5-min Rain = 0
KREE 111940Z 02005KT 28/08 A3019 RMK A01 T02830083  RH  029%=      5-min Rain = 0
KREE 111945Z 02004KT 28/08 A3019 RMK A01 T02840082  RH  029%=      5-min Rain = 0
KREE 111950Z 36003KT 29/09 A3019 RMK A01 T02860085  RH  029%=      5-min Rain = 0
KREE 111955Z 32002KT 29/09 A3018 RMK A01 T02880086  RH  029%=      5-min Rain = 0
KREE 112000Z 01005KT 29/09 A3018 RMK A01 T02880087  RH  029%=      5-min Rain = 0
KREE 112005Z 04005KT 28/08 A3018 RMK A01 T02840083  RH  029%=      5-min Rain = 0
KREE 112010Z 23001KT 29/09 A3018 RMK A01 T02860086  RH  029%=      5-min Rain = 0
KREE 112015Z 27004KT 29/09 A3017 RMK A01 T02850086  RH  029%=      5-min Rain = 0
KREE 112020Z 24001KT 29/08 A3017 RMK A01 T02850084  RH  029%=      5-min Rain = 0
KREE 112025Z 15001KT 29/09 A3017 RMK A01 T02910086  RH  028%=      5-min Rain = 0
KREE 112030Z 13003KT 30/09 A3016 RMK A01 T02950089  RH  028%=      5-min Rain = 0
KREE 112035Z 14005KT 29/09 A3016 RMK A01 T02940089  RH  028%=      5-min Rain = 0
KREE 112040Z 10003KT 29/09 A3016 RMK A01 T02930089  RH  029%=      5-min Rain = 0
KREE 112045Z 06003KT 29/09 A3016 RMK A01 T02930090  RH  029%=      5-min Rain = 0
KREE 112050Z 04006KT 29/09 A3015 RMK A01 T02910088  RH  029%=      5-min Rain = 0
KREE 112055Z 07006KT 29/09 A3015 RMK A01 T02910088  RH  029%=      5-min Rain = 0
KREE 112100Z 08007KT 29/09 A3015 RMK A01 T02910091  RH  029%=      5-min Rain = 0
KREE 112105Z 08005KT 29/09 A3015 RMK A01 T02880087  RH  029%=      5-min Rain = 0
KREE 112110Z 12002KT 29/09 A3015 RMK A01 T02870085  RH  029%=      5-min Rain = 0
KREE 112115Z 22003KT 29/09 A3015 RMK A01 T02920089  RH  029%=      5-min Rain = 0
KREE 112120Z 20002KT 29/09 A3015 RMK A01 T02910088  RH  029%=      5-min Rain = 0
KREE 112125Z 21004KT 29/09 A3014 RMK A01 T02940092  RH  029%=      5-min Rain = 0
KREE 112130Z 14003KT 30/09 A3014 RMK A01 T02970089  RH  028%=      5-min Rain = 0
KREE 112135Z 12002KT 30/09 A3014 RMK A01 T02990086  RH  027%=      5-min Rain = 0
KREE 112140Z 15002KT 30/09 A3014 RMK A01 T03030086  RH  026%=      5-min Rain = 0
KREE 112145Z 10003G8KT 31/09 A3014 RMK A01 T03060089  RH  026%=      5-min Rain = 0
KREE 112150Z 10003G8KT 30/09 A3014 RMK A01 T02980085  RH  027%=      5-min Rain = 0
KREE 112155Z 11005KT 30/09 A3013 RMK A01 T02960088  RH  028%=      5-min Rain = 0
KREE 112200Z 09004KT 29/09 A3013 RMK A01 T02910086  RH  028%=      5-min Rain = 0
KREE 112205Z 11004KT 29/09 A3013 RMK A01 T02930088  RH  028%=      5-min Rain = 0
KREE 112210Z 11004KT 29/09 A3013 RMK A01 T02930087  RH  028%=      5-min Rain = 0
KREE 112215Z 08003KT 30/09 A3013 RMK A01 T02950086  RH  027%=      5-min Rain = 0
KREE 112220Z 35002KT 30/09 A3013 RMK A01 T02960086  RH  027%=      5-min Rain = 0
KREE 112225Z 34001KT 30/09 A3013 RMK A01 T02980085  RH  027%=      5-min Rain = 0
KREE 112230Z 06003KT 30/09 A3013 RMK A01 T02990089  RH  027%=      5-min Rain = 0
KREE 112235Z 05003KT 30/08 A3013 RMK A01 T02980084  RH  027%=      5-min Rain = 0
KREE 112240Z 09004KT 30/09 A3013 RMK A01 T02950087  RH  028%=      5-min Rain = 0
KREE 112245Z 10004KT 29/09 A3013 RMK A01 T02930087  RH  028%=      5-min Rain = 0
KREE 112250Z 10003KT 29/09 A3013 RMK A01 T02930087  RH  028%=      5-min Rain = 0
KREE 112255Z 03001KT 30/09 A3013 RMK A01 T02960086  RH  027%=      5-min Rain = 0
KREE 112300Z 00002KT 30/08 A3013 RMK A01 T02970084  RH  027%=      5-min Rain = 0
KREE 112305Z 27001KT 30/09 A3012 RMK A01 T02980086  RH  027%=      5-min Rain = 0
KREE 112310Z 31001KT 30/09 A3012 RMK A01 T02990087  RH  027%=      5-min Rain = 0
KREE 112315Z 15002KT 30/09 A3012 RMK A01 T03030085  RH  026%=      5-min Rain = 0
KREE 112320Z 17002KT 30/09 A3012 RMK A01 T03020089  RH  027%=      5-min Rain = 0
KREE 112325Z 15001KT 30/09 A3012 RMK A01 T03040089  RH  027%=      5-min Rain = 0
KREE 112330Z 07001KT 30/09 A3012 RMK A01 T03000086  RH  027%=      5-min Rain = 0
KREE 112335Z 10002KT 30/09 A3012 RMK A01 T02980087  RH  027%=      5-min Rain = 0
KREE 112340Z 09004KT 29/09 A3012 RMK A01 T02910088  RH  029%=      5-min Rain = 0
KREE 112345Z 07003KT 29/09 A3012 RMK A01 T02890090  RH  029%=      5-min Rain = 0
KREE 112350Z 11003KT 29/09 A3012 RMK A01 T02910088  RH  029%=      5-min Rain = 0
KREE 112355Z 11002KT 29/09 A3012 RMK A01 T02930087  RH  028%=      5-min Rain = 0
KREE 120000Z 07004KT 29/09 A3012 RMK A01 T02890087  RH  029%=      5-min Rain = 0
KREE 120005Z 08004KT 29/09 A3012 RMK A01 T02850091  RH  030%=      5-min Rain = 0
KREE 120010Z 09003KT 28/09 A3012 RMK A01 T02830090  RH  030%=      5-min Rain = 0
KREE 120015Z 09004KT 28/10 A3012 RMK A01 T02810097  RH  032%=      5-min Rain = 0
KREE 120020Z 09004KT 28/10 A3012 RMK A01 T02780095  RH  032%=      5-min Rain = 0
KREE 120025Z 09004KT 28/10 A3012 RMK A01 T02760095  RH  033%=      5-min Rain = 0
KREE 120030Z 09004KT 27/10 A3012 RMK A01 T02730096  RH  033%=      5-min Rain = 0
KREE 120035Z 09005KT 27/10 A3012 RMK A01 T02700099  RH  035%=      5-min Rain = 0
KREE 120040Z 09004KT 27/10 A3011 RMK A01 T02650103  RH  037%=      5-min Rain = 0
KREE 120045Z 08004KT 26/10 A3011 RMK A01 T02610103  RH  038%=      5-min Rain = 0
KREE 120050Z 08003KT 26/10 A3011 RMK A01 T02590103  RH  038%=      5-min Rain = 0
KREE 120055Z 08004KT 26/10 A3011 RMK A01 T02570101  RH  038%=      5-min Rain = 0
KREE 120100Z 09004KT 26/10 A3011 RMK A01 T02560100  RH  038%=      5-min Rain = 0
KREE 120105Z 09003KT 26/10 A3011 RMK A01 T02550099  RH  038%=      5-min Rain = 0
KREE 120110Z 08003KT 25/10 A3011 RMK A01 T02540097  RH  038%=      5-min Rain = 0
KREE 120115Z 07004KT 26/10 A3011 RMK A01 T02550098  RH  038%=      5-min Rain = 0
KREE 120120Z 08004KT 25/10 A3012 RMK A01 T02510100  RH  039%=      5-min Rain = 0
KREE 120125Z 10004KT 24/11 A3012 RMK A01 T02420105  RH  043%=      5-min Rain = 0
KREE 120130Z 12004KT 24/11 A3012 RMK A01 T02380107  RH  044%=      5-min Rain = 0
KREE 120135Z 11003KT 24/11 A3012 RMK A01 T02370105  RH  044%=      5-min Rain = 0
KREE 120140Z 09004KT 24/10 A3012 RMK A01 T02370103  RH  043%=      5-min Rain = 0
KREE 120145Z 12003KT 24/10 A3012 RMK A01 T02360103  RH  044%=      5-min Rain = 0
KREE 120150Z 13002KT 24/10 A3012 RMK A01 T02360104  RH  044%=      5-min Rain = 0
KREE 120155Z 14003KT 24/10 A3012 RMK A01 T02350104  RH  044%=      5-min Rain = 0
KREE 120200Z 15003KT 24/10 A3012 RMK A01 T02360104  RH  044%=      5-min Rain = 0
KREE 120205Z 15003KT 24/10 A3013 RMK A01 T02370103  RH  044%=      5-min Rain = 0
KREE 120210Z 15003KT 24/10 A3013 RMK A01 T02350104  RH  044%=      5-min Rain = 0
KREE 120215Z 15004KT 24/10 A3013 RMK A01 T02360101  RH  043%=      5-min Rain = 0
KREE 120220Z 15003KT 24/10 A3013 RMK A01 T02370100  RH  042%=      5-min Rain = 0
KREE 120225Z 16003KT 24/10 A3013 RMK A01 T02380100  RH  042%=      5-min Rain = 0
KREE 120230Z 16004KT 24/10 A3014 RMK A01 T02390098  RH  041%=      5-min Rain = 0
KREE 120235Z 15004KT 24/10 A3014 RMK A01 T02410096  RH  040%=      5-min Rain = 0
KREE 120240Z 18004KT 24/10 A3014 RMK A01 T02400101  RH  042%=      5-min Rain = 0
KREE 120245Z 21005KT 22/11 A3014 RMK A01 T02180112  RH  052%=      5-min Rain = 0
KREE 120250Z 20004KT 21/11 A3014 RMK A01 T02090113  RH  055%=      5-min Rain = 0
KREE 120255Z 18004KT 21/11 A3014 RMK A01 T02100110  RH  054%=      5-min Rain = 0
KREE 120300Z 19004KT 22/11 A3014 RMK A01 T02150109  RH  052%=      5-min Rain = 0
KREE 120305Z 19004KT 21/11 A3014 RMK A01 T02140110  RH  052%=      5-min Rain = 0
KREE 120310Z 18004KT 21/11 A3014 RMK A01 T02120109  RH  053%=      5-min Rain = 0
KREE 120315Z 18004KT 21/11 A3014 RMK A01 T02120110  RH  053%=      5-min Rain = 0
KREE 120320Z 18004KT 21/11 A3014 RMK A01 T02130111  RH  053%=      5-min Rain = 0
KREE 120325Z 18004KT 21/11 A3014 RMK A01 T02120111  RH  054%=      5-min Rain = 0
KREE 120330Z 19004KT 21/11 A3014 RMK A01 T02090112  RH  055%=      5-min Rain = 0
KREE 120335Z 19003KT 21/11 A3014 RMK A01 T02080112  RH  055%=      5-min Rain = 0
KREE 120340Z 20003KT 21/11 A3014 RMK A01 T02070113  RH  056%=      5-min Rain = 0
KREE 120345Z 20004KT 20/11 A3014 RMK A01 T02040114  RH  057%=      5-min Rain = 0
KREE 120350Z 21003KT 20/11 A3014 RMK A01 T02020111  RH  057%=      5-min Rain = 0
KREE 120355Z 22003KT 20/11 A3014 RMK A01 T02010111  RH  057%=      5-min Rain = 0
KREE 120400Z 22004KT 20/11 A3014 RMK A01 T01980111  RH  058%=      5-min Rain = 0
KREE 120405Z 21004KT 20/11 A3014 RMK A01 T01970112  RH  059%=      5-min Rain = 0
KREE 120410Z 21004KT 20/11 A3014 RMK A01 T01980111  RH  058%=      5-min Rain = 0
KREE 120415Z 22003KT 20/11 A3014 RMK A01 T01990112  RH  058%=      5-min Rain = 0
KREE 120420Z 09006KT 20/11 A3014 RMK A01 T01970110  RH  058%=      5-min Rain = 0
KREE 120425Z 09006KT 20/11 A3015 RMK A01 T02040108  RH  055%=      5-min Rain = 0
KREE 120430Z 10006KT 20/11 A3015 RMK A01 T02010110  RH  057%=      5-min Rain = 0
KREE 120435Z 11008KT 20/11 A3015 RMK A01 T01960110  RH  059%=      5-min Rain = 0
KREE 120440Z 11009KT 20/11 A3015 RMK A01 T01980108  RH  057%=      5-min Rain = 0
KREE 120445Z 12008KT 20/11 A3015 RMK A01 T02000107  RH  056%=      5-min Rain = 0
KREE 120450Z 12006KT 20/11 A3015 RMK A01 T02010106  RH  055%=      5-min Rain = 0
KREE 120455Z 13006KT 20/10 A3015 RMK A01 T02010103  RH  054%=      5-min Rain = 0

Page generated in 0.0441 seconds.